Time;durP1;ratioP1;P1;durP2;ratioP2;P2;SDS_P1;SDS_P2;PMS_P1;PMS_P2;Temp;Humidity;BMP_temperature;BMP_pressure;BME280_temperature;BME280_humidity;BME280_pressure;Samples;Min_cycle;Max_cycle;Signal;HPM_P1;HPM_P2
2021/08/01 00:01:06;;;;;;;8.85;7.70;;;;;;;18.22;82.48;95381.89;1831226;78;20960;-59
2021/08/01 00:03:33;;;;;;;12.10;8.55;;;;;;;18.18;82.63;95379.02;1831734;78;21015;-59
2021/08/01 00:06:00;;;;;;;20.85;9.10;;;;;;;18.21;82.59;95369.50;1831780;78;21563;-59
2021/08/01 00:08:26;;;;;;;11.65;8.68;;;;;;;18.29;83.03;95365.47;1831532;78;20991;-59
2021/08/01 00:10:57;;;;;;;19.30;9.48;;;;;;;18.29;82.47;95366.80;1831295;78;21016;-59
2021/08/01 00:13:24;;;;;;;11.43;8.93;;;;;;;18.26;82.93;95366.97;1831793;78;21461;-59
2021/08/01 00:15:51;;;;;;;12.00;8.18;;;;;;;18.25;82.77;95367.07;1831488;78;20987;-60
2021/08/01 00:18:18;;;;;;;10.88;8.98;;;;;;;18.19;82.29;95364.23;1831443;78;21544;-59
2021/08/01 00:20:45;;;;;;;12.18;8.78;;;;;;;18.07;82.18;95366.22;1831618;78;21012;-59
2021/08/01 00:23:12;;;;;;;12.45;8.90;;;;;;;18.00;82.62;95363.00;1831439;78;20991;-59
2021/08/01 00:25:39;;;;;;;13.15;8.68;;;;;;;17.95;83.30;95358.37;1831425;78;21070;-59
2021/08/01 00:28:05;;;;;;;9.45;8.45;;;;;;;17.93;83.17;95358.91;1831677;78;20960;-62
2021/08/01 00:30:32;;;;;;;12.43;8.63;;;;;;;17.86;82.48;95360.16;1831658;78;21509;-59
2021/08/01 00:32:59;;;;;;;13.65;7.85;;;;;;;17.88;82.59;95359.62;1831370;78;21079;-59
2021/08/01 00:35:27;;;;;;;16.75;8.63;;;;;;;17.84;82.83;95362.03;1831667;78;22273;-59
2021/08/01 00:37:54;;;;;;;11.30;9.58;;;;;;;17.80;83.35;95353.81;1831757;78;20999;-59
2021/08/01 00:40:22;;;;;;;11.80;9.00;;;;;;;17.86;83.88;95356.16;1799531;78;21547;-60
2021/08/01 00:42:51;;;;;;;17.23;8.83;;;;;;;17.88;83.03;95355.61;1831615;78;21131;-59
2021/08/01 00:45:18;;;;;;;11.43;7.60;;;;;;;17.83;83.11;95351.84;1830931;78;21035;-59
2021/08/01 00:47:45;;;;;;;12.10;8.43;;;;;;;17.86;82.93;95354.34;1831610;78;21070;-59
2021/08/01 00:50:14;;;;;;;12.05;8.65;;;;;;;17.88;82.81;95359.14;1831415;78;20996;-59
2021/08/01 00:52:47;;;;;;;12.07;8.20;;;;;;;17.96;82.96;95358.75;1831630;78;20995;-60
2021/08/01 00:55:15;;;;;;;12.18;8.18;;;;;;;18.00;83.04;95363.48;1796634;78;21030;-59
2021/08/01 00:57:42;;;;;;;9.23;7.70;;;;;;;17.91;82.30;95367.45;1831709;78;20996;-59
2021/08/01 01:00:24;;;;;;;16.20;8.93;;;;;;;17.89;82.28;95364.00;1831316;78;21134;-59
2021/08/01 01:02:43;;;;;;;10.95;7.83;;;;;;;17.84;81.79;95360.70;1827985;78;21486;-59
2021/08/01 01:05:24;;;;;;;14.50;8.68;;;;;;;17.69;82.04;95359.19;1831342;78;20984;-59
2021/08/01 01:08:08;;;;;;;14.90;8.60;;;;;;;17.61;81.90;95356.50;1831745;78;21532;-59
2021/08/01 01:10:57;;;;;;;14.65;9.38;;;;;;;17.59;81.82;95367.70;1831622;78;21000;-59
2021/08/01 01:13:34;;;;;;;11.05;9.28;;;;;;;17.54;82.50;95359.96;1831339;78;20996;-59
2021/08/01 01:16:01;;;;;;;13.85;9.00;;;;;;;17.45;82.51;95349.26;1831366;78;21012;-59
2021/08/01 01:18:51;;;;;;;12.30;10.15;;;;;;;17.36;82.82;95359.06;1834183;78;21039;-59
2021/08/01 01:21:51;;;;;;;11.25;9.40;;;;;;;17.36;83.54;95351.06;1835215;78;21042;-59
2021/08/01 01:24:26;;;;;;;16.55;9.28;;;;;;;17.33;83.48;95345.00;1835018;78;20987;-59
2021/08/01 01:27:18;;;;;;;15.40;9.93;;;;;;;17.29;82.82;95346.97;1832873;78;21023;-59
2021/08/01 01:29:58;;;;;;;15.53;7.58;;;;;;;17.15;83.11;95340.95;1820324;78;21017;-58
2021/08/01 01:32:46;;;;;;;9.85;7.92;;;;;;;17.15;83.11;95340.95;1828432;78;21019;-59
2021/08/01 01:35:17;;;;;;;9.88;8.65;;;;;;;17.06;83.41;95349.42;1835189;78;21007;-59
2021/08/01 01:37:47;;;;;;;;;;;;;;;17.06;83.91;95349.42;1837843;78;21485;-59
2021/08/01 01:40:22;;;;;;;12.93;7.83;;;;;;;17.05;83.98;95345.86;1833019;78;20125;-59
2021/08/01 01:42:53;;;;;;;13.53;8.70;;;;;;;17.03;84.33;95349.54;1832940;78;21007;-59
2021/08/01 01:45:23;;;;;;;19.17;7.40;;;;;;;17.01;84.44;95352.30;1835067;78;21027;-59
2021/08/01 01:47:50;;;;;;;14.75;7.78;;;;;;;17.08;84.08;95351.52;1835033;78;21027;-59
2021/08/01 01:50:19;;;;;;;9.18;7.90;;;;;;;17.07;83.49;95356.47;1835131;78;20991;-59
2021/08/01 01:52:50;;;;;;;9.28;7.70;;;;;;;17.15;83.95;95349.43;1834657;78;21030;-59
2021/08/01 01:55:20;;;;;;;9.90;7.90;;;;;;;17.22;83.91;95355.72;1835312;78;21038;-59
2021/08/01 01:57:52;;;;;;;10.40;7.28;;;;;;;17.28;83.85;95355.41;1835032;78;21008;-59
2021/08/01 02:00:21;;;;;;;9.38;7.62;;;;;;;17.37;83.35;95351.45;1834999;78;20987;-59
2021/08/01 02:02:49;;;;;;;11.97;6.83;;;;;;;17.32;83.95;95355.28;1832729;78;21016;-59
2021/08/01 02:05:23;;;;;;;10.95;7.00;;;;;;;17.29;83.21;95360.30;1833580;78;21490;-59
2021/08/01 02:07:59;;;;;;;10.03;7.37;;;;;;;17.35;84.16;95345.32;1834957;78;21004;-59
2021/08/01 02:10:42;;;;;;;8.70;6.60;;;;;;;17.35;84.16;95345.32;1789545;78;21055;-59
2021/08/01 02:13:09;;;;;;;8.68;7.78;;;;;;;17.38;83.13;95339.83;1834414;78;21042;-59
2021/08/01 02:15:51;;;;;;;11.28;7.67;;;;;;;17.38;83.13;95339.83;1834188;78;20999;-59
2021/08/01 02:18:36;;;;;;;11.97;7.92;;;;;;;17.44;83.13;95336.02;1832948;78;21027;-59
2021/08/01 02:21:04;;;;;;;10.23;8.35;;;;;;;17.52;82.63;95341.34;1831580;78;21035;-59
2021/08/01 02:23:39;;;;;;;11.08;7.37;;;;;;;17.52;82.63;95341.34;1831570;78;21023;-59
2021/08/01 02:26:08;;;;;;;10.55;7.28;;;;;;;17.30;83.17;95336.69;1830301;78;21579;-59
2021/08/01 02:28:36;;;;;;;9.45;6.58;;;;;;;17.30;83.17;95336.69;1831539;78;20979;-59
2021/08/01 02:31:04;;;;;;;13.90;7.80;;;;;;;17.25;82.81;95344.91;1831882;78;21064;-59
2021/08/01 02:33:34;;;;;;;12.25;7.58;;;;;;;17.19;83.62;95342.55;1831518;78;21067;-59
2021/08/01 02:36:06;;;;;;;10.68;7.78;;;;;;;17.19;83.62;95342.55;1830508;78;20996;-59
2021/08/01 02:38:36;;;;;;;10.48;7.58;;;;;;;17.21;83.20;95349.12;1831476;78;21034;-59
2021/08/01 02:41:08;;;;;;;11.43;7.97;;;;;;;17.18;84.52;95342.61;1799189;78;20981;-59
2021/08/01 02:43:35;;;;;;;9.18;7.55;;;;;;;17.18;84.52;95342.61;1798877;78;21035;-59
2021/08/01 02:46:04;;;;;;;11.50;7.45;;;;;;;17.15;83.69;95346.77;1799182;78;21071;-59
2021/08/01 02:48:34;;;;;;;8.68;7.37;;;;;;;17.20;83.75;95354.07;1799993;78;20984;-60
2021/08/01 02:51:04;;;;;;;8.68;7.47;;;;;;;17.19;84.35;95368.35;1831575;78;21003;-59
2021/08/01 02:53:39;;;;;;;14.68;7.75;;;;;;;17.22;84.25;95365.05;1831499;78;21011;-59
2021/08/01 02:56:08;;;;;;;7.90;6.87;;;;;;;17.22;84.25;95365.05;1831478;78;20992;-59
2021/08/01 02:58:36;;;;;;;10.60;7.08;;;;;;;17.20;84.73;95375.40;1831591;78;21062;-59
2021/08/01 03:01:04;;;;;;;8.95;6.83;;;;;;;17.13;84.22;95365.96;1831770;78;20983;-59
2021/08/01 03:03:32;;;;;;;9.65;6.92;;;;;;;17.19;84.57;95382.54;1831483;78;20999;-59
2021/08/01 03:06:00;;;;;;;8.33;6.83;;;;;;;17.20;84.01;95380.73;1831827;78;20999;-59
2021/08/01 03:08:27;;;;;;;8.33;6.37;;;;;;;17.20;83.83;95380.73;1831917;78;21004;-59
2021/08/01 03:10:54;;;;;;;8.73;6.40;;;;;;;17.22;83.28;95380.20;1831221;78;21497;-59
2021/08/01 03:13:23;;;;;;;9.33;6.03;;;;;;;17.22;83.28;95380.20;1831703;78;21012;-59
2021/08/01 03:15:52;;;;;;;11.63;6.45;;;;;;;17.17;82.41;95383.55;1831870;78;21022;-59
2021/08/01 03:18:19;;;;;;;8.78;6.87;;;;;;;17.08;82.63;95384.39;1832969;78;21031;-59
2021/08/01 03:20:46;;;;;;;10.78;6.80;;;;;;;16.98;82.41;95382.21;1835333;78;21007;-59
2021/08/01 03:23:22;;;;;;;8.88;7.47;;;;;;;16.93;82.24;95382.42;1835212;78;21007;-59
2021/08/01 03:26:09;;;;;;;13.00;6.58;;;;;;;16.85;82.43;95379.26;1770195;81;21561;-60
2021/08/01 03:28:38;;;;;;;11.03;7.05;;;;;;;16.73;82.57;95382.02;1769853;81;21474;-59
2021/08/01 03:31:06;;;;;;;8.95;6.80;;;;;;;16.65;83.17;95383.66;1794951;78;21497;-59
2021/08/01 03:33:35;;;;;;;9.73;7.17;;;;;;;16.61;83.97;95384.77;1834551;78;21491;-59
2021/08/01 03:36:03;;;;;;;8.75;7.50;;;;;;;16.52;84.04;95385.64;1835284;78;21007;-59
2021/08/01 03:38:43;;;;;;;10.43;7.50;;;;;;;16.46;84.09;95384.13;1791281;78;21055;-59
2021/08/01 03:41:29;;;;;;;11.40;7.35;;;;;;;16.40;84.05;95387.05;1835178;78;20988;-59
2021/08/01 03:43:56;;;;;;;11.03;6.92;;;;;;;16.43;84.43;95388.27;1835396;78;21017;-59
2021/08/01 03:46:23;;;;;;;13.22;7.03;;;;;;;16.42;84.68;95386.05;1834761;78;21500;-59
2021/08/01 03:48:50;;;;;;;9.63;6.87;;;;;;;16.44;84.92;95390.84;1834866;78;21055;-60
2021/08/01 03:51:17;;;;;;;10.35;6.78;;;;;;;16.52;84.78;95382.50;1835281;78;20969;-59
2021/08/01 03:53:44;;;;;;;6.92;6.10;;;;;;;16.56;84.96;95380.59;1834762;78;21016;-58
2021/08/01 03:56:11;;;;;;;8.70;6.00;;;;;;;16.57;84.40;95387.16;1835122;78;21015;-59
2021/08/01 03:58:38;;;;;;;6.80;5.45;;;;;;;16.57;85.11;95384.97;1834725;78;21042;-60
2021/08/01 04:01:04;;;;;;;9.18;7.12;;;;;;;16.58;84.93;95386.68;1835019;78;21004;-59
2021/08/01 04:03:31;;;;;;;9.40;7.97;;;;;;;16.61;85.35;95383.43;1835003;78;21039;-59
2021/08/01 04:05:57;;;;;;;8.60;6.67;;;;;;;16.72;85.75;95382.93;1834726;78;21043;-59
2021/08/01 04:08:23;;;;;;;7.60;6.70;;;;;;;16.86;85.34;95370.34;1834999;78;21039;-59
2021/08/01 04:10:50;;;;;;;6.80;6.15;;;;;;;16.86;85.34;95370.34;1835290;78;21497;-59
2021/08/01 04:13:16;;;;;;;6.12;5.40;;;;;;;16.92;85.18;95374.52;1834658;78;21115;-59
2021/08/01 04:15:46;;;;;;;7.78;6.40;;;;;;;17.00;84.83;95376.34;1835336;78;21437;-59
2021/08/01 04:18:14;;;;;;;6.92;6.30;;;;;;;17.07;85.17;95369.31;1836810;78;21028;-59
2021/08/01 04:20:41;;;;;;;6.80;6.20;;;;;;;17.23;85.35;95365.44;1840473;78;21016;-59
2021/08/01 04:23:08;;;;;;;6.62;6.03;;;;;;;17.40;85.26;95373.96;1840664;78;21317;-59
2021/08/01 04:25:34;;;;;;;6.95;6.15;;;;;;;17.45;84.44;95377.73;1840737;78;21493;-58
2021/08/01 04:28:01;;;;;;;7.35;6.65;;;;;;;17.55;84.57;95383.02;1812391;78;20980;-58
2021/08/01 04:30:27;;;;;;;6.10;5.50;;;;;;;17.66;84.62;95371.33;1840392;78;20983;-58
2021/08/01 04:32:54;;;;;;;6.60;6.00;;;;;;;17.87;84.11;95381.92;1840380;78;20976;-58
2021/08/01 04:35:21;;;;;;;6.30;5.75;;;;;;;17.99;83.73;95378.60;1840689;78;21472;-58
2021/08/01 04:37:47;;;;;;;6.30;5.80;;;;;;;18.03;83.39;95366.84;1840709;78;21042;-59
2021/08/01 04:40:15;;;;;;;7.62;5.87;;;;;;;18.16;83.39;95379.94;1840395;78;21083;-59
2021/08/01 04:42:41;;;;;;;6.03;5.47;;;;;;;18.27;83.07;95375.84;1840374;78;21003;-59
2021/08/01 04:45:09;;;;;;;6.62;5.95;;;;;;;18.33;83.17;95380.88;1840420;78;21023;-59
2021/08/01 04:47:36;;;;;;;7.03;5.22;;;;;;;18.43;82.86;95374.11;1841224;78;21491;-59
2021/08/01 04:50:02;;;;;;;7.25;5.10;;;;;;;18.48;82.75;95376.06;1840680;78;21461;-59
2021/08/01 04:52:29;;;;;;;6.28;5.35;;;;;;;18.62;82.76;95368.63;1840650;78;21038;-59
2021/08/01 04:54:55;;;;;;;6.78;5.42;;;;;;;18.73;81.45;95368.07;1840729;78;21399;-59
2021/08/01 04:57:22;;;;;;;6.97;6.28;;;;;;;18.77;81.36;95361.17;1840281;78;21075;-59
2021/08/01 04:59:49;;;;;;;7.83;5.47;;;;;;;18.67;81.14;95353.23;1840626;78;21066;-59
2021/08/01 05:02:15;;;;;;;9.15;5.22;;;;;;;18.83;81.75;95356.44;1840320;78;21572;-59
2021/08/01 05:04:42;;;;;;;9.23;5.92;;;;;;;18.82;80.36;95364.91;1840379;78;21046;-59
2021/08/01 05:07:08;;;;;;;6.83;6.12;;;;;;;18.83;80.67;95361.78;1840315;78;21098;-59
2021/08/01 05:09:35;;;;;;;6.53;5.62;;;;;;;18.96;81.87;95363.69;1840238;78;21115;-59
2021/08/01 05:12:02;;;;;;;6.08;5.45;;;;;;;19.06;82.17;95357.36;1840374;78;21019;-59
2021/08/01 05:14:32;;;;;;;12.60;6.28;;;;;;;19.17;82.46;95363.44;1840767;78;20998;-59
2021/08/01 05:16:58;;;;;;;6.85;6.03;;;;;;;19.19;81.88;95362.88;1840370;78;21038;-59
2021/08/01 05:19:25;;;;;;;7.10;6.50;;;;;;;19.27;82.04;95362.45;1836176;78;20984;-59
2021/08/01 05:21:51;;;;;;;12.28;6.67;;;;;;;19.35;82.04;95366.87;1835224;78;21468;-59
2021/08/01 05:24:18;;;;;;;9.13;6.50;;;;;;;19.44;81.92;95361.02;1745863;82;21009;-59
2021/08/01 05:26:45;;;;;;;7.28;6.58;;;;;;;19.54;81.60;95371.58;1767619;81;21077;-59
2021/08/01 05:29:12;;;;;;;7.40;6.67;;;;;;;19.62;81.48;95374.67;1767725;81;20971;-59
2021/08/01 05:31:39;;;;;;;9.30;6.05;;;;;;;19.71;81.39;95375.14;1767483;81;21042;-59
2021/08/01 05:34:05;;;;;;;6.58;5.75;;;;;;;19.72;80.78;95372.84;1767744;81;21054;-59
2021/08/01 05:36:32;;;;;;;9.25;6.95;;;;;;;19.76;80.78;95368.56;1767653;81;21022;-59
2021/08/01 05:38:58;;;;;;;6.78;5.95;;;;;;;19.88;80.91;95370.97;1768020;81;21459;-59
2021/08/01 05:41:25;;;;;;;5.75;5.17;;;;;;;20.00;80.82;95363.56;1767614;81;21086;-59
2021/08/01 05:43:52;;;;;;;6.28;5.30;;;;;;;20.09;80.30;95361.69;1767805;81;21448;-59
2021/08/01 05:46:18;;;;;;;7.87;5.35;;;;;;;20.21;80.13;95368.58;1767958;81;21038;-59
2021/08/01 05:48:45;;;;;;;6.37;5.17;;;;;;;20.31;80.33;95365.28;1767870;81;21543;-59
2021/08/01 05:51:12;;;;;;;5.65;5.05;;;;;;;20.49;80.03;95366.45;1767863;81;21113;-59
2021/08/01 05:53:38;;;;;;;5.80;5.30;;;;;;;20.60;79.41;95362.66;1767705;81;21158;-59
2021/08/01 05:56:10;;;;;;;7.35;4.62;;;;;;;20.68;78.02;95364.86;1740030;81;21480;-59
2021/08/01 05:58:40;;;;;;;6.97;5.03;;;;;;;20.82;78.90;95364.02;1767851;81;20994;-59
2021/08/01 06:01:14;;;;;;;6.08;5.00;;;;;;;20.95;78.50;95360.94;1768100;81;21065;-59
2021/08/01 06:03:42;;;;;;;8.45;4.42;;;;;;;21.11;78.25;95360.81;1767844;81;21479;-59
2021/08/01 06:06:24;;;;;;;7.17;4.67;;;;;;;21.22;77.61;95356.09;1767963;81;21018;-59
2021/08/01 06:08:52;;;;;;;4.87;4.47;;;;;;;21.34;77.21;95359.33;1767633;81;21003;-60
2021/08/01 06:11:21;;;;;;;6.40;5.33;;;;;;;21.51;76.10;95356.92;1768356;81;21029;-59
2021/08/01 06:13:49;;;;;;;5.45;4.67;;;;;;;21.65;76.26;95361.41;1767631;81;21033;-59
2021/08/01 06:16:16;;;;;;;6.45;5.20;;;;;;;21.81;75.84;95360.27;1767965;81;21038;-59
2021/08/01 06:18:44;;;;;;;6.53;5.78;;;;;;;21.92;75.12;95347.45;1762806;81;21050;-59
2021/08/01 06:21:17;;;;;;;5.80;5.30;;;;;;;21.99;74.43;95349.25;1752349;81;21000;-59
2021/08/01 06:23:50;;;;;;;5.62;4.90;;;;;;;22.09;74.81;95351.69;1779915;81;20979;-59
2021/08/01 06:26:20;;;;;;;6.00;5.40;;;;;;;22.17;71.27;95347.14;1780023;81;21101;-59
2021/08/01 06:43:00;;;;;;;8.95;5.97;;;;;;;23.91;69.48;95328.42;1860068;77;22901;-59
2021/08/01 06:45:27;;;;;;;8.73;5.92;;;;;;;23.91;70.03;95336.97;1832304;78;20994;-59
2021/08/01 06:47:53;;;;;;;6.92;6.33;;;;;;;23.97;69.45;95329.30;1831921;78;21022;-59
2021/08/01 06:50:21;;;;;;;7.85;6.20;;;;;;;24.07;69.40;95326.77;1832106;78;21109;-59
2021/08/01 06:52:47;;;;;;;7.08;6.33;;;;;;;24.01;67.41;95327.22;1832054;78;21057;-59
2021/08/01 06:55:14;;;;;;;6.75;6.17;;;;;;;24.06;67.50;95324.17;1832198;78;20971;-59
2021/08/01 06:57:40;;;;;;;8.93;6.37;;;;;;;24.08;67.66;95333.86;1832350;78;21006;-59
2021/08/01 07:00:09;;;;;;;6.87;6.17;;;;;;;23.93;67.41;95330.49;1831921;78;21049;-60
2021/08/01 07:02:35;;;;;;;6.75;6.15;;;;;;;23.96;67.73;95324.01;1832454;78;20998;-58
2021/08/01 07:05:02;;;;;;;6.75;6.15;;;;;;;24.05;67.18;95331.91;1831912;78;21542;-59
2021/08/01 07:07:29;;;;;;;6.72;6.12;;;;;;;24.10;68.26;95329.72;1832015;78;21492;-59
2021/08/01 07:09:55;;;;;;;7.22;6.53;;;;;;;24.22;67.95;95326.55;1832028;78;21006;-59
2021/08/01 07:12:22;;;;;;;10.50;6.10;;;;;;;24.31;66.95;95330.74;1831989;78;21526;-59
2021/08/01 07:14:49;;;;;;;7.00;5.85;;;;;;;24.31;65.00;95335.28;1831951;78;21036;-59
2021/08/01 07:17:21;;;;;;;6.12;5.55;;;;;;;24.30;65.67;95335.78;1832111;78;21575;-58
2021/08/01 07:19:49;;;;;;;6.55;6.00;;;;;;;24.31;64.54;95333.94;1832066;78;21074;-59
2021/08/01 07:22:16;;;;;;;7.20;6.58;;;;;;;24.30;63.58;95330.88;1832298;78;21454;-59
2021/08/01 07:24:42;;;;;;;7.42;6.45;;;;;;;24.35;64.77;95330.89;1832030;78;21515;-59
2021/08/01 07:27:09;;;;;;;8.10;6.45;;;;;;;24.49;64.76;95332.53;1832589;78;21002;-59
2021/08/01 07:29:36;;;;;;;8.43;7.37;;;;;;;24.59;63.81;95332.20;1831887;78;21519;-58
2021/08/01 07:32:03;;;;;;;8.25;6.33;;;;;;;24.73;64.39;95331.11;1832214;78;21002;-59
2021/08/01 07:34:29;;;;;;;9.35;6.50;;;;;;;24.82;63.83;95324.99;1832193;78;20998;-59
2021/08/01 07:36:57;;;;;;;11.48;6.58;;;;;;;24.83;63.81;95321.80;1832084;78;20990;-59
2021/08/01 07:39:24;;;;;;;7.47;6.65;;;;;;;24.82;63.51;95317.36;1832393;78;21448;-59
2021/08/01 07:41:50;;;;;;;7.37;6.67;;;;;;;24.93;64.29;95309.78;1818226;78;21527;-59
2021/08/01 07:44:17;;;;;;;7.72;6.72;;;;;;;25.04;63.11;95313.81;1798355;80;21045;-59
2021/08/01 07:46:44;;;;;;;7.35;6.45;;;;;;;25.12;63.78;95306.45;1798697;80;21484;-59
2021/08/01 08:01:31;;;;;;;8.80;7.05;;;;;;;26.52;61.35;95258.69;1860267;77;22437;-60
2021/08/01 08:03:58;;;;;;;7.83;7.12;;;;;;;26.44;63.03;95257.63;1832082;78;21047;-60
2021/08/01 08:06:27;;;;;;;12.47;7.05;;;;;;;26.44;61.68;95254.41;1832020;78;21023;-60
2021/08/01 08:08:54;;;;;;;8.73;7.62;;;;;;;26.45;62.69;95250.70;1832045;78;21008;-59
2021/08/01 08:11:20;;;;;;;13.55;7.67;;;;;;;26.53;62.31;95262.23;1832546;78;20992;-60
2021/08/01 08:13:46;;;;;;;9.15;7.78;;;;;;;26.53;62.41;95251.42;1831877;78;21015;-60
2021/08/01 08:16:13;;;;;;;9.73;7.97;;;;;;;26.56;62.72;95244.41;1832195;78;21119;-60
2021/08/01 08:18:40;;;;;;;8.45;7.65;;;;;;;26.65;62.83;95249.50;1832186;78;21068;-59
2021/08/01 08:21:06;;;;;;;9.38;8.55;;;;;;;26.68;61.81;95243.80;1832413;78;21039;-60
2021/08/01 08:23:32;;;;;;;8.93;8.08;;;;;;;26.69;62.30;95244.19;1832198;78;21011;-60
2021/08/01 08:25:59;;;;;;;8.40;7.58;;;;;;;26.80;62.47;95239.16;1832068;78;21020;-60
2021/08/01 08:28:26;;;;;;;9.78;8.55;;;;;;;26.90;62.53;95231.44;1832489;78;21000;-60
2021/08/01 08:30:52;;;;;;;8.13;7.42;;;;;;;26.93;61.54;95231.66;1832403;78;21056;-60
2021/08/01 08:33:19;;;;;;;8.60;7.80;;;;;;;26.96;61.24;95230.91;1832433;78;20964;-59
2021/08/01 08:35:45;;;;;;;8.80;7.95;;;;;;;27.01;60.95;95229.11;1831888;78;21015;-59
2021/08/01 08:38:12;;;;;;;8.68;7.92;;;;;;;27.05;61.46;95212.96;1832401;78;21512;-60
2021/08/01 08:40:39;;;;;;;8.65;7.83;;;;;;;27.07;61.46;95215.03;1831894;78;21130;-59
2021/08/01 08:43:05;;;;;;;8.43;7.37;;;;;;;27.03;60.96;95215.45;1832751;78;20944;-60
2021/08/01 08:45:33;;;;;;;7.87;7.05;;;;;;;27.08;60.71;95217.24;1827595;78;21023;-59
2021/08/01 08:47:59;;;;;;;8.08;7.33;;;;;;;27.07;60.82;95217.75;1832456;78;20984;-60
2021/08/01 08:50:27;;;;;;;8.95;8.08;;;;;;;27.05;60.38;95210.75;1832303;78;21023;-60
2021/08/01 08:52:59;;;;;;;8.83;8.03;;;;;;;27.20;63.44;95212.11;1832365;78;21004;-60
2021/08/01 08:55:29;;;;;;;8.73;7.60;;;;;;;27.37;62.11;95214.64;1831967;78;21438;-60
2021/08/01 08:58:00;;;;;;;8.43;7.60;;;;;;;27.36;60.77;95214.27;1832385;78;21019;-60
2021/08/01 09:00:27;;;;;;;9.90;7.62;;;;;;;27.44;61.29;95210.34;1827015;78;21072;-60
2021/08/01 09:02:55;;;;;;;8.03;7.22;;;;;;;27.55;61.07;95205.31;1831462;78;20972;-60
2021/08/01 09:05:22;;;;;;;8.30;7.60;;;;;;;27.73;61.75;95201.39;1831377;78;21003;-60
2021/08/01 09:07:49;;;;;;;8.28;7.45;;;;;;;27.87;60.81;95204.19;1831727;78;21063;-60
2021/08/01 09:10:16;;;;;;;8.13;7.33;;;;;;;27.94;61.29;95200.75;1831604;78;21008;-60
2021/08/01 09:12:46;;;;;;;7.53;6.75;;;;;;;28.04;60.50;95205.66;1831388;78;21008;-60
2021/08/01 09:15:24;;;;;;;8.88;7.97;;;;;;;28.05;59.41;95206.54;1831720;78;20968;-60
2021/08/01 09:17:53;;;;;;;8.08;7.10;;;;;;;28.11;59.01;95206.45;1831749;78;21040;-60
2021/08/01 09:20:25;;;;;;;8.20;7.42;;;;;;;28.25;60.24;95217.71;1831228;78;21047;-60
2021/08/01 09:23:08;;;;;;;9.03;7.12;;;;;;;28.26;59.17;95219.91;1831706;78;21003;-59
2021/08/01 09:25:41;;;;;;;8.63;7.83;;;;;;;28.37;58.57;95208.88;1831436;78;21008;-60
2021/08/01 09:28:21;;;;;;;8.60;7.67;;;;;;;28.53;59.24;95208.83;1831835;78;21481;-60
2021/08/01 09:31:04;;;;;;;9.30;8.50;;;;;;;28.58;59.19;95211.44;1831745;78;21012;-60
2021/08/01 09:33:37;;;;;;;9.05;8.15;;;;;;;28.69;58.93;95213.11;1831407;78;21071;-60
2021/08/01 09:36:15;;;;;;;10.35;8.93;;;;;;;28.82;57.92;95210.05;1831802;78;21532;-60
2021/08/01 09:38:55;;;;;;;14.98;7.80;;;;;;;28.84;57.71;95204.83;1831826;78;21011;-60
2021/08/01 09:41:35;;;;;;;8.45;7.75;;;;;;;28.88;57.08;95197.25;1831414;78;21007;-60
2021/08/01 09:44:07;;;;;;;8.85;8.00;;;;;;;28.94;58.37;95199.86;1831433;78;21043;-60
2021/08/01 09:46:47;;;;;;;8.60;7.80;;;;;;;28.99;56.31;95193.47;1831664;78;21031;-60
2021/08/01 09:49:23;;;;;;;11.40;8.70;;;;;;;29.09;58.15;95198.38;1831692;78;20980;-60
2021/08/01 09:51:55;;;;;;;9.00;8.10;;;;;;;29.26;58.08;95193.48;1830142;78;21063;-60
2021/08/01 09:54:26;;;;;;;9.93;7.97;;;;;;;29.46;56.99;95191.50;1831696;78;21540;-60
2021/08/01 09:56:58;;;;;;;9.63;8.60;;;;;;;29.60;57.66;95188.73;1830025;78;21003;-60
2021/08/01 09:59:32;;;;;;;9.45;8.65;;;;;;;29.62;55.93;95189.44;1831613;78;21003;-60
2021/08/01 10:02:03;;;;;;;9.95;8.38;;;;;;;29.65;55.26;95196.43;1831338;78;21008;-59
2021/08/01 10:04:38;;;;;;;10.88;8.90;;;;;;;29.68;55.95;95183.91;1831932;78;21473;-59
2021/08/01 10:07:14;;;;;;;9.33;8.43;;;;;;;29.70;55.53;95178.66;1831615;78;21516;-60
2021/08/01 10:09:43;;;;;;;9.60;8.70;;;;;;;29.88;55.81;95184.09;1831583;78;20995;-60
2021/08/01 10:12:12;;;;;;;12.50;8.70;;;;;;;30.00;56.32;95180.62;1831649;78;20975;-60
2021/08/01 10:14:39;;;;;;;8.90;7.80;;;;;;;30.08;55.73;95179.84;1831611;78;21018;-60
2021/08/01 10:17:07;;;;;;;8.95;8.15;;;;;;;30.20;55.46;95174.48;1831675;78;21066;-60
2021/08/01 10:19:34;;;;;;;9.53;7.72;;;;;;;30.20;54.46;95184.02;1794348;78;20968;-61
2021/08/01 10:22:04;;;;;;;10.32;8.30;;;;;;;30.28;53.55;95182.73;1826973;78;20976;-60
2021/08/01 10:24:38;;;;;;;12.75;8.60;;;;;;;30.19;52.92;95177.72;1799383;78;21793;-60
2021/08/01 10:27:09;;;;;;;8.68;7.75;;;;;;;30.09;51.65;95166.09;1831541;78;21054;-61
2021/08/01 10:29:54;;;;;;;8.87;8.07;;;;;;;30.11;53.33;95168.11;1831944;78;20995;-60
2021/08/01 10:32:22;;;;;;;8.63;7.83;;;;;;;30.28;52.34;95161.47;1831898;78;21541;-60
2021/08/01 10:35:17;;;;;;;9.55;7.72;;;;;;;30.42;52.45;95152.73;1831953;78;21422;-60
2021/08/01 10:37:49;;;;;;;9.05;8.05;;;;;;;30.57;52.22;95149.75;1831663;78;20964;-60
2021/08/01 10:40:22;;;;;;;8.77;7.93;;;;;;;30.62;50.35;95149.27;1831899;78;21039;-61
2021/08/01 10:42:54;;;;;;;9.98;8.00;;;;;;;30.52;49.12;95145.81;1831671;78;21536;-60
2021/08/01 10:45:21;;;;;;;9.55;7.72;;;;;;;30.59;51.75;95142.76;1831901;78;21039;-60
2021/08/01 10:47:53;;;;;;;10.00;7.22;;;;;;;30.66;49.13;95134.30;1831082;78;21055;-60
2021/08/01 10:50:30;;;;;;;8.20;7.40;;;;;;;30.61;49.32;95133.92;1831753;78;21501;-60
2021/08/01 10:53:27;;;;;;;8.90;8.00;;;;;;;30.71;50.47;95131.08;1831656;78;21051;-60
2021/08/01 10:56:26;;;;;;;8.63;7.72;;;;;;;30.86;51.24;95128.63;1831204;78;20987;-60
2021/08/01 10:58:53;;;;;;;8.75;7.95;;;;;;;31.05;51.06;95112.02;1831699;78;21011;-60
2021/08/01 11:01:19;;;;;;;9.48;8.25;;;;;;;31.17;50.30;95107.96;1831396;78;21075;-60
2021/08/01 11:03:49;;;;;;;8.60;7.80;;;;;;;31.18;49.95;95097.91;1831020;78;21173;-60
2021/08/01 11:06:41;;;;;;;9.43;7.62;;;;;;;31.29;51.47;95089.91;1790150;78;21016;-60
2021/08/01 11:09:12;;;;;;;8.73;7.45;;;;;;;31.37;52.15;95090.77;1827244;78;21461;-60
2021/08/01 11:11:39;;;;;;;8.25;7.37;;;;;;;31.41;50.06;95088.09;1831552;78;21007;-60
2021/08/01 11:14:06;;;;;;;9.33;8.03;;;;;;;31.46;49.16;95082.12;1831310;78;21012;-59
2021/08/01 11:16:44;;;;;;;10.75;7.85;;;;;;;31.61;49.52;95083.16;1831781;78;21023;-60
2021/08/01 11:19:33;;;;;;;8.55;7.75;;;;;;;31.73;49.24;95065.95;1831350;78;21007;-60
2021/08/01 11:22:01;;;;;;;8.95;7.65;;;;;;;31.78;49.51;95066.80;1831440;78;21070;-60
2021/08/01 11:24:27;;;;;;;10.70;8.00;;;;;;;31.86;50.82;95067.63;1830963;78;21020;-60
2021/08/01 11:27:12;;;;;;;9.25;8.30;;;;;;;31.95;48.95;95069.01;1831369;78;20964;-60
2021/08/01 11:30:01;;;;;;;9.15;7.58;;;;;;;31.98;49.05;95063.20;1831593;78;20984;-60
2021/08/01 11:32:28;;;;;;;8.45;7.65;;;;;;;32.10;48.77;95058.59;1831568;78;21016;-60
2021/08/01 11:35:16;;;;;;;8.88;8.00;;;;;;;32.11;47.68;95057.56;1831483;78;20972;-60
2021/08/01 11:37:43;;;;;;;8.33;7.53;;;;;;;32.17;48.69;95050.55;1790823;78;21623;-60
2021/08/01 11:40:12;;;;;;;8.90;8.10;;;;;;;32.17;48.15;95033.33;1831333;78;21019;-60
2021/08/01 11:42:39;;;;;;;7.80;7.10;;;;;;;32.20;47.23;95035.70;1827110;78;20969;-60
2021/08/01 11:45:12;;;;;;;9.98;7.55;;;;;;;32.23;48.60;95043.53;1831395;78;21015;-60
2021/08/01 11:47:46;;;;;;;8.18;7.28;;;;;;;32.27;48.09;95034.81;1830735;78;21465;-60
2021/08/01 11:50:14;;;;;;;7.78;7.08;;;;;;;32.37;49.03;95034.62;1831527;78;21019;-60
2021/08/01 11:52:43;;;;;;;8.00;7.22;;;;;;;32.53;48.76;95026.41;1831053;78;21091;-60
2021/08/01 11:55:13;;;;;;;10.32;7.30;;;;;;;32.75;50.33;95028.00;1831558;78;21438;-60
2021/08/01 11:57:42;;;;;;;8.15;7.45;;;;;;;32.97;47.14;95016.25;1831759;78;21020;-60
2021/08/01 12:00:10;;;;;;;9.50;7.40;;;;;;;33.22;46.86;95005.19;1831677;78;21007;-60
2021/08/01 12:02:38;;;;;;;7.80;6.70;;;;;;;33.55;46.58;95009.91;1831724;78;21064;-60
2021/08/01 12:05:07;;;;;;;12.28;7.50;;;;;;;33.68;44.36;95005.69;1831249;78;21019;-60
2021/08/01 12:07:43;;;;;;;7.33;6.62;;;;;;;33.76;44.08;95004.24;1831669;78;21072;-60
2021/08/01 12:10:26;;;;;;;8.93;6.87;;;;;;;34.20;44.01;95005.70;1831687;78;21847;-61
2021/08/01 12:12:56;;;;;;;7.47;6.78;;;;;;;34.55;45.00;95005.97;1831366;78;21011;-61